Time;durP1;ratioP1;P1;durP2;ratioP2;P2;SDS_P1;SDS_P2;PMS_P1;PMS_P2;Temp;Humidity;BMP_temperature;BMP_pressure;BME280_temperature;BME280_humidity;BME280_pressure;Samples;Min_cycle;Max_cycle;Signal;HPM_P1;HPM_P2
2021/10/23 00:00:07;;;;;;;6.07;0.90;;;;;;;;;;696080;28;978;-64
2021/10/23 00:00:27;;;;;;;5.30;0.90;;;;;;;;;;696353;28;875;-64
2021/10/23 00:00:47;;;;;;;6.50;1.10;;;;;;;;;;696413;28;990;-64
2021/10/23 00:01:08;;;;;;;5.60;0.97;;;;;;;;;;696174;28;884;-64
2021/10/23 00:01:29;;;;;;;6.27;0.90;;;;;;;;;;696299;28;1382;-64
2021/10/23 00:01:49;;;;;;;7.15;1.00;;;;;;;;;;696372;28;1042;-64
2021/10/23 00:02:10;;;;;;;5.53;0.90;;;;;;;;;;696369;28;804;-64
2021/10/23 00:02:30;;;;;;;5.03;0.80;;;;;;;;;;696400;28;855;-64
2021/10/23 00:02:50;;;;;;;5.43;0.87;;;;;;;;;;695808;28;1058;-63
2021/10/23 00:03:10;;;;;;;5.10;0.83;;;;;;;;;;696292;28;903;-63
2021/10/23 00:03:31;;;;;;;5.50;0.90;;;;;;;;;;696221;28;1357;-63
2021/10/23 00:03:51;;;;;;;6.18;1.05;;;;;;;;;;696336;28;958;-63
2021/10/23 00:04:11;;;;;;;7.40;1.23;;;;;;;;;;696390;28;867;-62
2021/10/23 00:04:31;;;;;;;6.00;1.00;;;;;;;;;;696334;28;780;-63
2021/10/23 00:04:52;;;;;;;7.15;0.80;;;;;;;;;;696417;28;825;-63
2021/10/23 00:05:12;;;;;;;5.77;0.93;;;;;;;;;;695934;28;1965;-63
2021/10/23 00:05:32;;;;;;;6.10;1.10;;;;;;;;;;695837;28;1343;-63
2021/10/23 00:05:52;;;;;;;5.90;1.20;;;;;;;;;;696151;28;947;-63
2021/10/23 00:06:13;;;;;;;6.33;1.40;;;;;;;;;;696243;28;868;-63
2021/10/23 00:06:33;;;;;;;5.77;1.10;;;;;;;;;;696018;28;987;-63
2021/10/23 00:06:53;;;;;;;6.03;1.27;;;;;;;;;;696218;28;1022;-63
2021/10/23 00:07:13;;;;;;;6.63;1.30;;;;;;;;;;696316;28;777;-63
2021/10/23 00:07:33;;;;;;;5.78;1.20;;;;;;;;;;696278;28;1062;-63
2021/10/23 00:07:54;;;;;;;6.80;1.20;;;;;;;;;;696415;28;946;-63
2021/10/23 00:08:14;;;;;;;5.57;1.10;;;;;;;;;;696275;28;1033;-63
2021/10/23 00:08:34;;;;;;;6.00;1.00;;;;;;;;;;696388;28;852;-64
2021/10/23 00:08:54;;;;;;;5.37;0.97;;;;;;;;;;696393;28;837;-63
2021/10/23 00:09:14;;;;;;;5.40;1.20;;;;;;;;;;696281;28;793;-63
2021/10/23 00:09:35;;;;;;;6.07;1.07;;;;;;;;;;696274;28;916;-63
2021/10/23 00:09:55;;;;;;;4.95;1.10;;;;;;;;;;696291;28;1045;-63
2021/10/23 00:10:15;;;;;;;6.07;1.10;;;;;;;;;;696401;28;880;-63
2021/10/23 00:10:35;;;;;;;5.23;1.00;;;;;;;;;;696412;28;847;-63
2021/10/23 00:10:58;;;;;;;5.33;1.00;;;;;;;;;;696070;28;1322;-63
2021/10/23 00:11:18;;;;;;;6.13;1.20;;;;;;;;;;696289;28;959;-63
2021/10/23 00:11:38;;;;;;;6.13;0.90;;;;;;;;;;696282;28;1017;-64
2021/10/23 00:12:01;;;;;;;5.78;0.80;;;;;;;;;;696354;28;873;-64
2021/10/23 00:12:21;;;;;;;6.00;1.30;;;;;;;;;;696404;28;852;-64
2021/10/23 00:12:41;;;;;;;6.38;1.10;;;;;;;;;;695998;28;892;-64
2021/10/23 00:13:02;;;;;;;7.77;1.30;;;;;;;;;;696274;28;1000;-64
2021/10/23 00:13:22;;;;;;;7.63;1.30;;;;;;;;;;696374;28;805;-64
2021/10/23 00:13:42;;;;;;;6.78;1.10;;;;;;;;;;696064;28;1202;-64
2021/10/23 00:14:03;;;;;;;5.40;1.00;;;;;;;;;;696354;28;1220;-64
2021/10/23 00:14:26;;;;;;;6.85;1.10;;;;;;;;;;696218;28;1015;-64
2021/10/23 00:14:46;;;;;;;4.82;0.93;;;;;;;;;;696341;28;915;-64
2021/10/23 00:15:06;;;;;;;6.20;1.02;;;;;;;;;;696346;28;872;-64
2021/10/23 00:15:27;;;;;;;6.87;0.83;;;;;;;;;;696199;28;859;-63
2021/10/23 00:15:47;;;;;;;6.90;1.30;;;;;;;;;;696206;28;832;-63
2021/10/23 00:16:07;;;;;;;6.47;1.17;;;;;;;;;;696397;28;923;-63
2021/10/23 00:16:27;;;;;;;6.20;1.20;;;;;;;;;;696272;28;869;-64
2021/10/23 00:16:48;;;;;;;5.63;0.90;;;;;;;;;;696376;28;788;-63
2021/10/23 00:17:08;;;;;;;6.93;1.00;;;;;;;;;;695929;28;1410;-63
2021/10/23 00:17:28;;;;;;;5.27;1.10;;;;;;;;;;696054;28;841;-63
2021/10/23 00:17:48;;;;;;;5.07;1.00;;;;;;;;;;695922;28;907;-64
2021/10/23 00:18:08;;;;;;;6.03;1.20;;;;;;;;;;696161;28;986;-64
2021/10/23 00:18:28;;;;;;;5.43;1.10;;;;;;;;;;696332;28;920;-63
2021/10/23 00:18:49;;;;;;;4.80;0.90;;;;;;;;;;696271;28;801;-65
2021/10/23 00:19:09;;;;;;;5.50;1.00;;;;;;;;;;696327;28;927;-65
2021/10/23 00:19:29;;;;;;;6.20;0.90;;;;;;;;;;696341;28;831;-63
2021/10/23 00:19:49;;;;;;;6.23;0.80;;;;;;;;;;696094;28;983;-63
2021/10/23 00:20:10;;;;;;;7.57;1.17;;;;;;;;;;696403;28;848;-63
2021/10/23 00:20:30;;;;;;;7.73;1.10;;;;;;;;;;696346;28;992;-63
2021/10/23 00:20:50;;;;;;;6.67;1.00;;;;;;;;;;696256;28;947;-63
2021/10/23 00:21:10;;;;;;;6.90;1.27;;;;;;;;;;696329;28;777;-62
2021/10/23 00:21:31;;;;;;;6.77;1.23;;;;;;;;;;696307;28;931;-62
2021/10/23 00:21:51;;;;;;;7.40;1.20;;;;;;;;;;696036;28;1433;-62
2021/10/23 00:22:11;;;;;;;5.27;1.00;;;;;;;;;;696365;28;982;-62
2021/10/23 00:22:31;;;;;;;5.33;1.00;;;;;;;;;;696170;28;1234;-63
2021/10/23 00:22:51;;;;;;;4.13;0.90;;;;;;;;;;695844;28;914;-64
2021/10/23 00:23:12;;;;;;;5.25;1.00;;;;;;;;;;696352;28;926;-64
2021/10/23 00:23:32;;;;;;;5.83;0.80;;;;;;;;;;696204;28;1336;-64
2021/10/23 00:23:52;;;;;;;6.20;0.80;;;;;;;;;;696197;28;1033;-64
2021/10/23 00:24:12;;;;;;;6.87;1.10;;;;;;;;;;696417;28;887;-64
2021/10/23 00:24:32;;;;;;;6.07;1.10;;;;;;;;;;696298;28;863;-64
2021/10/23 00:24:52;;;;;;;5.80;1.05;;;;;;;;;;696416;28;856;-63
2021/10/23 00:25:12;;;;;;;5.13;1.20;;;;;;;;;;696171;28;1957;-63
2021/10/23 00:25:33;;;;;;;4.83;0.93;;;;;;;;;;696327;28;883;-63
2021/10/23 00:25:53;;;;;;;5.10;0.90;;;;;;;;;;696185;28;1014;-63
2021/10/23 00:26:13;;;;;;;6.07;0.93;;;;;;;;;;696215;28;819;-64
2021/10/23 00:26:33;;;;;;;7.27;1.00;;;;;;;;;;696290;28;986;-63
2021/10/23 00:26:54;;;;;;;5.47;1.00;;;;;;;;;;696280;28;895;-64
2021/10/23 00:27:14;;;;;;;5.87;1.00;;;;;;;;;;696312;28;913;-63
2021/10/23 00:27:34;;;;;;;6.97;0.90;;;;;;;;;;696311;28;950;-62
2021/10/23 00:27:55;;;;;;;6.23;1.10;;;;;;;;;;696230;28;899;-63
2021/10/23 00:28:15;;;;;;;6.32;1.00;;;;;;;;;;696304;28;847;-63
2021/10/23 00:28:36;;;;;;;7.20;1.00;;;;;;;;;;696374;28;1069;-63
2021/10/23 00:28:56;;;;;;;6.40;1.10;;;;;;;;;;696296;28;1039;-63
2021/10/23 00:29:16;;;;;;;5.63;1.00;;;;;;;;;;696231;28;1049;-63
2021/10/23 00:29:36;;;;;;;6.80;1.20;;;;;;;;;;696276;28;915;-63
2021/10/23 00:29:58;;;;;;;5.27;0.93;;;;;;;;;;696229;28;1122;-64
2021/10/23 00:30:18;;;;;;;6.40;1.15;;;;;;;;;;696238;28;871;-64
2021/10/23 00:30:38;;;;;;;4.43;0.90;;;;;;;;;;696243;28;922;-64
2021/10/23 00:30:58;;;;;;;5.30;0.90;;;;;;;;;;696391;28;801;-64
2021/10/23 00:31:19;;;;;;;5.80;1.00;;;;;;;;;;696264;28;971;-64
2021/10/23 00:31:39;;;;;;;6.90;1.07;;;;;;;;;;696211;28;844;-64
2021/10/23 00:31:59;;;;;;;7.47;1.00;;;;;;;;;;696299;28;836;-63
2021/10/23 00:32:19;;;;;;;5.65;0.80;;;;;;;;;;696174;28;874;-63
2021/10/23 00:32:39;;;;;;;6.30;0.97;;;;;;;;;;696081;28;900;-63
2021/10/23 00:33:02;;;;;;;8.00;0.97;;;;;;;;;;696143;28;812;-63
2021/10/23 00:33:23;;;;;;;7.35;1.10;;;;;;;;;;696099;28;1382;-64
2021/10/23 00:33:43;;;;;;;7.40;1.10;;;;;;;;;;696299;28;887;-64
2021/10/23 00:34:03;;;;;;;6.83;1.10;;;;;;;;;;696296;28;1034;-63
2021/10/23 00:34:24;;;;;;;5.90;1.00;;;;;;;;;;696156;28;776;-63
2021/10/23 00:34:44;;;;;;;4.43;0.80;;;;;;;;;;696345;28;835;-64
2021/10/23 00:35:05;;;;;;;6.03;0.80;;;;;;;;;;696294;28;826;-63
2021/10/23 00:35:25;;;;;;;6.75;0.88;;;;;;;;;;696246;28;989;-63
2021/10/23 00:35:45;;;;;;;5.33;1.00;;;;;;;;;;696269;28;907;-64
2021/10/23 00:36:05;;;;;;;6.63;1.00;;;;;;;;;;696446;28;1037;-63
2021/10/23 00:36:25;;;;;;;5.22;1.00;;;;;;;;;;696286;28;745;-65
2021/10/23 00:36:46;;;;;;;5.57;1.00;;;;;;;;;;696253;28;971;-63
2021/10/23 00:37:06;;;;;;;5.40;0.90;;;;;;;;;;696289;28;998;-63
2021/10/23 00:37:26;;;;;;;5.50;0.83;;;;;;;;;;696270;28;934;-63
2021/10/23 00:37:46;;;;;;;6.07;0.90;;;;;;;;;;696154;28;871;-64
2021/10/23 00:38:06;;;;;;;8.00;1.00;;;;;;;;;;696322;28;931;-64
2021/10/23 00:38:27;;;;;;;7.10;1.00;;;;;;;;;;696277;28;883;-64
2021/10/23 00:38:47;;;;;;;7.67;1.03;;;;;;;;;;696143;28;918;-63
2021/10/23 00:39:07;;;;;;;7.25;1.30;;;;;;;;;;696359;28;824;-64
2021/10/23 00:39:28;;;;;;;7.03;1.20;;;;;;;;;;696222;28;1025;-64
2021/10/23 00:39:48;;;;;;;7.53;1.13;;;;;;;;;;696212;28;785;-64
2021/10/23 00:40:08;;;;;;;6.87;1.20;;;;;;;;;;696404;28;888;-64
2021/10/23 00:40:29;;;;;;;5.30;0.90;;;;;;;;;;696134;28;891;-63
2021/10/23 00:40:49;;;;;;;6.60;1.30;;;;;;;;;;696276;28;1025;-64
2021/10/23 00:41:09;;;;;;;6.13;1.07;;;;;;;;;;696304;28;900;-63
2021/10/23 00:41:29;;;;;;;6.23;1.10;;;;;;;;;;696144;28;963;-63
2021/10/23 00:41:49;;;;;;;7.27;1.30;;;;;;;;;;696253;28;990;-64
2021/10/23 00:42:12;;;;;;;6.87;1.07;;;;;;;;;;696372;28;859;-64
2021/10/23 00:42:35;;;;;;;7.13;1.10;;;;;;;;;;696254;28;949;-63
2021/10/23 00:42:56;;;;;;;7.32;0.95;;;;;;;;;;695782;28;1064;-64
2021/10/23 00:43:16;;;;;;;4.95;1.00;;;;;;;;;;696273;28;924;-64
2021/10/23 00:43:38;;;;;;;6.23;1.10;;;;;;;;;;696203;28;1315;-64
2021/10/23 00:43:58;;;;;;;5.93;1.05;;;;;;;;;;696255;28;892;-64
2021/10/23 00:44:32;;;;;;;4.30;1.00;;;;;;;;;;696249;28;967;-64
2021/10/23 00:44:53;;;;;;;5.95;1.15;;;;;;;;;;696129;28;902;-64
2021/10/23 00:45:13;;;;;;;6.47;1.00;;;;;;;;;;696211;28;1914;-64
2021/10/23 00:45:33;;;;;;;6.70;1.00;;;;;;;;;;696366;28;781;-63
2021/10/23 00:45:54;;;;;;;7.60;1.00;;;;;;;;;;696099;28;1078;-64
2021/10/23 00:46:15;;;;;;;6.43;1.13;;;;;;;;;;696221;28;1251;-64
2021/10/23 00:46:38;;;;;;;6.15;1.20;;;;;;;;;;696053;28;1441;-64
2021/10/23 00:47:02;;;;;;;5.15;1.20;;;;;;;;;;696248;28;899;-64
2021/10/23 00:47:22;;;;;;;5.90;1.02;;;;;;;;;;696315;28;876;-63
2021/10/23 00:47:42;;;;;;;6.10;1.00;;;;;;;;;;696158;28;796;-64
2021/10/23 00:48:03;;;;;;;6.50;1.15;;;;;;;;;;696320;28;986;-63
2021/10/23 00:48:23;;;;;;;6.80;1.20;;;;;;;;;;696307;28;982;-63
2021/10/23 00:48:43;;;;;;;6.07;1.20;;;;;;;;;;696256;28;852;-64
2021/10/23 00:49:03;;;;;;;6.27;1.10;;;;;;;;;;696232;28;974;-64
2021/10/23 00:49:24;;;;;;;5.87;1.00;;;;;;;;;;696271;28;915;-63
2021/10/23 00:49:46;;;;;;;8.80;1.20;;;;;;;;;;696214;28;943;-64
2021/10/23 00:50:06;;;;;;;6.53;1.00;;;;;;;;;;696297;28;943;-63
2021/10/23 00:50:26;;;;;;;5.68;1.10;;;;;;;;;;696182;28;1195;-63
2021/10/23 00:50:47;;;;;;;7.27;1.30;;;;;;;;;;696305;28;983;-63
2021/10/23 00:51:11;;;;;;;6.53;0.98;;;;;;;;;;696167;28;788;-63
2021/10/23 00:51:31;;;;;;;5.45;0.73;;;;;;;;;;696360;28;888;-64
2021/10/23 00:51:54;;;;;;;5.53;0.90;;;;;;;;;;695953;28;1448;-63
2021/10/23 00:52:14;;;;;;;5.18;0.98;;;;;;;;;;696254;28;864;-63
2021/10/23 00:52:34;;;;;;;6.03;1.00;;;;;;;;;;696281;28;1026;-63
2021/10/23 00:52:54;;;;;;;5.83;1.00;;;;;;;;;;695630;28;1301;-63
2021/10/23 00:53:15;;;;;;;5.53;0.90;;;;;;;;;;696248;28;836;-63
2021/10/23 00:53:35;;;;;;;5.65;0.82;;;;;;;;;;696322;28;1317;-63
2021/10/23 00:53:55;;;;;;;7.47;0.90;;;;;;;;;;696143;28;966;-63
2021/10/23 00:54:15;;;;;;;7.20;1.00;;;;;;;;;;696315;28;898;-63
2021/10/23 00:54:36;;;;;;;6.65;1.17;;;;;;;;;;696200;28;800;-63
2021/10/23 00:54:57;;;;;;;5.63;1.23;;;;;;;;;;696102;28;844;-63
2021/10/23 00:55:19;;;;;;;4.93;1.00;;;;;;;;;;696202;28;999;-63
2021/10/23 00:55:40;;;;;;;4.47;0.90;;;;;;;;;;696252;28;852;-63
2021/10/23 00:56:00;;;;;;;6.18;1.02;;;;;;;;;;695977;28;1802;-63
2021/10/23 00:56:20;;;;;;;5.10;1.00;;;;;;;;;;696286;28;850;-63
2021/10/23 00:56:40;;;;;;;5.80;1.00;;;;;;;;;;696253;28;846;-63
2021/10/23 00:57:01;;;;;;;5.70;0.90;;;;;;;;;;696046;28;1364;-63
2021/10/23 00:57:22;;;;;;;7.20;1.00;;;;;;;;;;696153;28;1369;-63
2021/10/23 00:57:42;;;;;;;5.57;0.80;;;;;;;;;;696231;28;824;-63
2021/10/23 00:58:02;;;;;;;5.45;1.10;;;;;;;;;;696061;28;1043;-63
2021/10/23 00:58:22;;;;;;;5.53;0.97;;;;;;;;;;696278;28;884;-63
2021/10/23 00:58:44;;;;;;;5.30;0.90;;;;;;;;;;696277;28;856;-63
2021/10/23 00:59:04;;;;;;;5.45;1.10;;;;;;;;;;696311;28;951;-64
2021/10/23 00:59:25;;;;;;;5.13;0.80;;;;;;;;;;696139;28;1014;-64
2021/10/23 00:59:45;;;;;;;5.67;0.90;;;;;;;;;;696263;28;958;-63
2021/10/23 01:00:07;;;;;;;5.38;0.90;;;;;;;;;;696200;28;953;-64
2021/10/23 01:00:27;;;;;;;4.90;1.00;;;;;;;;;;696179;28;1319;-64
2021/10/23 01:00:47;;;;;;;5.33;0.90;;;;;;;;;;696384;28;848;-63
2021/10/23 01:01:07;;;;;;;5.77;1.00;;;;;;;;;;696154;28;832;-63
2021/10/23 01:01:27;;;;;;;6.07;1.10;;;;;;;;;;696301;28;780;-63
2021/10/23 01:01:48;;;;;;;5.97;1.02;;;;;;;;;;696247;28;955;-63
2021/10/23 01:02:08;;;;;;;6.00;1.05;;;;;;;;;;696133;28;1110;-63
2021/10/23 01:02:28;;;;;;;5.20;0.90;;;;;;;;;;696385;28;810;-64
2021/10/23 01:02:49;;;;;;;6.13;1.00;;;;;;;;;;695674;28;1318;-63
2021/10/23 01:03:12;;;;;;;6.67;0.90;;;;;;;;;;696144;28;845;-63
2021/10/23 01:03:33;;;;;;;3.92;0.70;;;;;;;;;;696257;28;1342;-63
2021/10/23 01:03:53;;;;;;;5.33;0.90;;;;;;;;;;696173;28;911;-66
2021/10/23 01:04:13;;;;;;;5.93;1.00;;;;;;;;;;696248;28;927;-64
2021/10/23 01:04:33;;;;;;;5.90;1.00;;;;;;;;;;696458;28;789;-64
2021/10/23 01:04:54;;;;;;;4.80;0.80;;;;;;;;;;696255;28;939;-64
2021/10/23 01:05:14;;;;;;;5.85;0.90;;;;;;;;;;696225;28;1910;-64
2021/10/23 01:05:34;;;;;;;5.67;0.87;;;;;;;;;;696228;28;993;-64
2021/10/23 01:05:54;;;;;;;6.07;0.70;;;;;;;;;;696335;28;868;-64
2021/10/23 01:06:18;;;;;;;5.97;0.93;;;;;;;;;;696274;28;933;-64
2021/10/23 01:06:38;;;;;;;3.67;0.70;;;;;;;;;;696285;28;823;-64
2021/10/23 01:06:59;;;;;;;4.97;1.00;;;;;;;;;;696220;28;1013;-64
2021/10/23 01:07:19;;;;;;;5.17;1.07;;;;;;;;;;696323;28;843;-64
2021/10/23 01:07:39;;;;;;;5.90;1.30;;;;;;;;;;696230;28;927;-64
2021/10/23 01:07:59;;;;;;;6.57;0.80;;;;;;;;;;696277;28;891;-64
2021/10/23 01:08:20;;;;;;;5.17;0.80;;;;;;;;;;696121;28;907;-64
2021/10/23 01:08:40;;;;;;;4.77;0.80;;;;;;;;;;696410;28;832;-64
2021/10/23 01:09:00;;;;;;;4.43;0.80;;;;;;;;;;696444;28;1042;-64
2021/10/23 01:09:20;;;;;;;5.68;0.95;;;;;;;;;;696537;28;1050;-64
2021/10/23 01:09:41;;;;;;;5.73;1.00;;;;;;;;;;696638;28;884;-64
2021/10/23 01:10:04;;;;;;;5.55;1.00;;;;;;;;;;696422;28;861;-64
2021/10/23 01:10:25;;;;;;;5.22;0.90;;;;;;;;;;696423;28;869;-64
2021/10/23 01:10:45;;;;;;;4.95;0.80;;;;;;;;;;696408;28;907;-64
2021/10/23 01:11:05;;;;;;;6.67;1.00;;;;;;;;;;696922;28;941;-64
2021/10/23 01:11:26;;;;;;;5.77;1.00;;;;;;;;;;696727;28;860;-64
2021/10/23 01:11:47;;;;;;;6.97;0.90;;;;;;;;;;696867;28;909;-64
2021/10/23 01:12:08;;;;;;;5.00;1.00;;;;;;;;;;696469;28;874;-64
2021/10/23 01:12:28;;;;;;;3.85;0.70;;;;;;;;;;696556;28;1003;-64
2021/10/23 01:12:48;;;;;;;5.90;0.90;;;;;;;;;;695715;28;990;-64
2021/10/23 01:13:08;;;;;;;6.47;0.97;;;;;;;;;;696382;28;919;-64
2021/10/23 01:13:28;;;;;;;6.60;1.00;;;;;;;;;;696311;28;1353;-64
2021/10/23 01:13:49;;;;;;;6.23;1.10;;;;;;;;;;696191;28;793;-65
2021/10/23 01:14:17;;;;;;;5.03;0.93;;;;;;;;;;696267;28;998;-63
2021/10/23 01:14:37;;;;;;;6.38;0.98;;;;;;;;;;696296;28;946;-64
2021/10/23 01:14:57;;;;;;;8.52;1.10;;;;;;;;;;696484;28;809;-64
2021/10/23 01:15:22;;;;;;;7.70;1.00;;;;;;;;;;696700;28;881;-63
2021/10/23 01:15:42;;;;;;;6.57;1.00;;;;;;;;;;696387;28;951;-64
2021/10/23 01:16:02;;;;;;;6.03;1.00;;;;;;;;;;696399;28;970;-64
2021/10/23 01:16:23;;;;;;;6.90;1.00;;;;;;;;;;696548;28;978;-64
2021/10/23 01:16:44;;;;;;;6.47;0.90;;;;;;;;;;696403;28;977;-63
2021/10/23 01:17:04;;;;;;;6.43;0.93;;;;;;;;;;696381;28;1047;-64
2021/10/23 01:17:24;;;;;;;7.13;0.97;;;;;;;;;;696358;28;1083;-64
2021/10/23 01:17:47;;;;;;;5.13;0.80;;;;;;;;;;696469;28;785;-64
2021/10/23 01:18:10;;;;;;;6.40;1.00;;;;;;;;;;696189;28;947;-64
2021/10/23 01:18:30;;;;;;;7.03;1.02;;;;;;;;;;696345;28;1069;-64
2021/10/23 01:18:50;;;;;;;5.47;0.95;;;;;;;;;;696402;28;895;-64
2021/10/23 01:19:14;;;;;;;4.87;0.80;;;;;;;;;;696475;28;903;-64
2021/10/23 01:19:34;;;;;;;5.82;0.90;;;;;;;;;;696480;28;857;-64
2021/10/23 01:19:56;;;;;;;4.85;0.90;;;;;;;;;;696334;28;872;-64
2021/10/23 01:20:18;;;;;;;5.40;1.20;;;;;;;;;;696253;28;911;-64
2021/10/23 01:20:38;;;;;;;5.60;1.00;;;;;;;;;;696083;28;1403;-64
2021/10/23 01:20:58;;;;;;;5.25;1.13;;;;;;;;;;696143;28;904;-64
2021/10/23 01:21:19;;;;;;;5.20;1.00;;;;;;;;;;696296;28;849;-64
2021/10/23 01:21:40;;;;;;;5.28;1.00;;;;;;;;;;696309;28;947;-64
2021/10/23 01:22:01;;;;;;;4.72;0.90;;;;;;;;;;696055;28;895;-64
2021/10/23 01:22:25;;;;;;;6.07;0.80;;;;;;;;;;696217;28;967;-64
2021/10/23 01:22:45;;;;;;;6.05;0.80;;;;;;;;;;695752;28;905;-63
2021/10/23 01:23:05;;;;;;;6.63;0.80;;;;;;;;;;696312;28;986;-63
2021/10/23 01:23:25;;;;;;;4.87;0.83;;;;;;;;;;696281;28;1346;-64
2021/10/23 01:23:45;;;;;;;6.37;1.10;;;;;;;;;;696235;28;847;-64
2021/10/23 01:24:06;;;;;;;7.82;1.10;;;;;;;;;;696164;28;919;-63
2021/10/23 01:24:27;;;;;;;5.32;1.00;;;;;;;;;;696173;28;861;-62
2021/10/23 01:24:49;;;;;;;5.53;0.90;;;;;;;;;;696195;28;841;-63
2021/10/23 01:25:11;;;;;;;5.20;0.85;;;;;;;;;;696171;28;1959;-63
2021/10/23 01:25:31;;;;;;;6.93;1.10;;;;;;;;;;696159;28;883;-63
2021/10/23 01:25:51;;;;;;;6.65;1.00;;;;;;;;;;696281;28;1031;-63
2021/10/23 01:26:12;;;;;;;6.60;1.00;;;;;;;;;;696147;28;805;-63
2021/10/23 01:26:32;;;;;;;8.13;1.13;;;;;;;;;;696190;28;868;-64
2021/10/23 01:26:52;;;;;;;6.70;1.05;;;;;;;;;;696037;28;1434;-64
2021/10/23 01:27:13;;;;;;;6.20;1.10;;;;;;;;;;695973;28;825;-64
2021/10/23 01:27:33;;;;;;;4.67;0.80;;;;;;;;;;696066;28;836;-63
2021/10/23 01:27:54;;;;;;;5.57;0.90;;;;;;;;;;696086;28;938;-63
2021/10/23 01:28:14;;;;;;;5.43;1.08;;;;;;;;;;695824;28;1077;-63
2021/10/23 01:28:34;;;;;;;6.33;1.00;;;;;;;;;;696059;28;996;-63
2021/10/23 01:28:55;;;;;;;5.53;1.07;;;;;;;;;;696363;28;785;-63
2021/10/23 01:29:16;;;;;;;7.90;1.10;;;;;;;;;;696560;28;1022;-63
2021/10/23 01:29:36;;;;;;;7.97;1.00;;;;;;;;;;696881;28;947;-64
2021/10/23 01:29:56;;;;;;;6.83;1.00;;;;;;;;;;696926;28;883;-64
2021/10/23 01:30:16;;;;;;;7.30;1.30;;;;;;;;;;696548;28;1387;-64
2021/10/23 01:30:36;;;;;;;6.07;1.15;;;;;;;;;;696949;28;984;-64
2021/10/23 01:30:57;;;;;;;5.60;1.07;;;;;;;;;;696833;28;1078;-64
2021/10/23 01:31:20;;;;;;;6.33;1.10;;;;;;;;;;696992;28;797;-64
2021/10/23 01:31:41;;;;;;;7.20;1.10;;;;;;;;;;697222;28;958;-64
2021/10/23 01:32:01;;;;;;;6.47;1.00;;;;;;;;;;697104;28;1081;-64
2021/10/23 01:32:21;;;;;;;7.32;1.30;;;;;;;;;;697033;28;908;-64
2021/10/23 01:32:42;;;;;;;6.73;1.07;;;;;;;;;;696643;28;820;-64
2021/10/23 01:33:02;;;;;;;6.47;1.00;;;;;;;;;;697195;28;1284;-62
2021/10/23 01:33:23;;;;;;;6.97;1.00;;;;;;;;;;697188;28;1227;-64
2021/10/23 01:33:43;;;;;;;7.30;1.17;;;;;;;;;;696959;28;994;-65
2021/10/23 01:34:23;;;;;;;7.55;1.20;;;;;;;;;;697249;28;1046;-64
2021/10/23 01:34:46;;;;;;;6.78;1.20;;;;;;;;;;697025;28;1324;-63
2021/10/23 01:35:07;;;;;;;6.57;1.40;;;;;;;;;;697021;28;979;-64
2021/10/23 01:35:28;;;;;;;5.90;1.20;;;;;;;;;;696868;28;1081;-64
2021/10/23 01:35:48;;;;;;;5.82;1.10;;;;;;;;;;697042;28;1110;-64
2021/10/23 01:36:12;;;;;;;7.17;1.07;;;;;;;;;;696998;28;974;-64
2021/10/23 01:36:32;;;;;;;5.88;1.00;;;;;;;;;;697006;28;933;-64
2021/10/23 01:36:55;;;;;;;6.03;0.98;;;;;;;;;;696921;28;804;-64
2021/10/23 01:37:15;;;;;;;6.43;1.05;;;;;;;;;;696802;28;1039;-63
2021/10/23 01:37:37;;;;;;;7.00;1.10;;;;;;;;;;696947;28;810;-64
2021/10/23 01:37:57;;;;;;;6.05;0.95;;;;;;;;;;696731;28;919;-63
2021/10/23 01:38:18;;;;;;;7.43;0.97;;;;;;;;;;696816;28;785;-63
2021/10/23 01:38:41;;;;;;;6.37;1.10;;;;;;;;;;696965;28;900;-63
2021/10/23 01:39:01;;;;;;;7.18;1.20;;;;;;;;;;696891;28;860;-64
2021/10/23 01:39:23;;;;;;;7.87;1.07;;;;;;;;;;697094;28;1194;-63
2021/10/23 01:39:43;;;;;;;7.72;1.20;;;;;;;;;;696781;28;1016;-63
2021/10/23 01:40:05;;;;;;;7.30;1.13;;;;;;;;;;696683;28;1018;-63
2021/10/23 01:40:27;;;;;;;6.07;1.10;;;;;;;;;;696738;28;1058;-63
2021/10/23 01:40:47;;;;;;;7.40;1.15;;;;;;;;;;696633;28;1927;-63
2021/10/23 01:41:07;;;;;;;6.87;1.03;;;;;;;;;;696664;28;875;-63
2021/10/23 01:41:27;;;;;;;6.53;1.10;;;;;;;;;;696772;28;780;-63
2021/10/23 01:41:48;;;;;;;5.60;0.97;;;;;;;;;;696696;28;1110;-63
2021/10/23 01:42:08;;;;;;;8.88;1.27;;;;;;;;;;696561;28;974;-64
2021/10/23 01:42:28;;;;;;;8.30;1.30;;;;;;;;;;696634;28;832;-63
2021/10/23 01:42:48;;;;;;;7.10;1.00;;;;;;;;;;696277;28;780;-63
2021/10/23 01:43:08;;;;;;;6.67;1.00;;;;;;;;;;696667;28;799;-63
2021/10/23 01:43:28;;;;;;;5.23;1.00;;;;;;;;;;696530;28;1358;-63
2021/10/23 01:43:49;;;;;;;5.88;1.10;;;;;;;;;;696726;28;927;-63
2021/10/23 01:44:09;;;;;;;6.87;1.10;;;;;;;;;;696639;28;882;-63
2021/10/23 01:44:32;;;;;;;6.30;1.10;;;;;;;;;;696382;28;1436;-63
2021/10/23 01:44:52;;;;;;;6.45;1.17;;;;;;;;;;696687;28;907;-63
2021/10/23 01:45:12;;;;;;;5.90;1.10;;;;;;;;;;696507;28;1910;-63
2021/10/23 01:45:32;;;;;;;6.30;1.08;;;;;;;;;;696745;28;805;-63
2021/10/23 01:45:53;;;;;;;5.07;1.20;;;;;;;;;;696707;28;960;-63
2021/10/23 01:46:13;;;;;;;5.03;1.03;;;;;;;;;;696553;28;1093;-63
2021/10/23 01:46:33;;;;;;;5.30;1.02;;;;;;;;;;696675;28;817;-63
2021/10/23 01:46:53;;;;;;;6.17;1.10;;;;;;;;;;696686;28;876;-63
2021/10/23 01:47:14;;;;;;;5.67;0.97;;;;;;;;;;696614;28;840;-64
2021/10/23 01:47:34;;;;;;;6.83;1.07;;;;;;;;;;696765;28;927;-63
2021/10/23 01:47:54;;;;;;;6.40;1.17;;;;;;;;;;696634;28;845;-63
2021/10/23 01:48:14;;;;;;;6.20;1.00;;;;;;;;;;696598;28;1010;-63
2021/10/23 01:48:35;;;;;;;6.90;1.10;;;;;;;;;;696724;28;844;-63
2021/10/23 01:48:55;;;;;;;5.82;1.00;;;;;;;;;;696573;28;915;-63
2021/10/23 01:49:15;;;;;;;6.07;1.17;;;;;;;;;;696639;28;774;-63
2021/10/23 01:49:35;;;;;;;6.10;1.03;;;;;;;;;;696636;28;927;-64
2021/10/23 01:49:55;;;;;;;6.97;1.05;;;;;;;;;;696717;28;883;-64
2021/10/23 01:50:17;;;;;;;4.80;0.90;;;;;;;;;;696689;28;882;-63
2021/10/23 01:50:38;;;;;;;5.85;0.95;;;;;;;;;;696611;28;882;-64
2021/10/23 01:50:58;;;;;;;7.27;1.03;;;;;;;;;;696637;28;986;-64
2021/10/23 01:51:18;;;;;;;6.97;1.10;;;;;;;;;;696645;28;1014;-63
2021/10/23 01:51:41;;;;;;;5.43;1.07;;;;;;;;;;696557;28;1069;-63
2021/10/23 01:52:02;;;;;;;4.75;0.93;;;;;;;;;;696715;28;1024;-63
2021/10/23 01:52:22;;;;;;;3.97;1.00;;;;;;;;;;696535;28;912;-63
2021/10/23 01:52:42;;;;;;;5.15;1.00;;;;;;;;;;696500;28;814;-63
2021/10/23 01:53:02;;;;;;;7.23;1.20;;;;;;;;;;696593;28;833;-63
2021/10/23 01:53:23;;;;;;;5.97;1.00;;;;;;;;;;696544;28;1446;-63
2021/10/23 01:53:43;;;;;;;6.28;1.05;;;;;;;;;;696715;28;903;-64
2021/10/23 01:54:04;;;;;;;5.30;0.87;;;;;;;;;;696547;28;927;-64
2021/10/23 01:54:24;;;;;;;6.13;1.10;;;;;;;;;;696619;28;1176;-63
2021/10/23 01:54:44;;;;;;;5.43;1.10;;;;;;;;;;696749;28;824;-64
2021/10/23 01:55:05;;;;;;;5.87;1.10;;;;;;;;;;696595;28;936;-64
2021/10/23 01:55:25;;;;;;;5.32;0.90;;;;;;;;;;696632;28;983;-63
2021/10/23 01:55:46;;;;;;;5.23;0.90;;;;;;;;;;696658;28;850;-63
2021/10/23 01:56:06;;;;;;;5.93;1.00;;;;;;;;;;696518;28;892;-63
2021/10/23 01:56:26;;;;;;;5.07;1.10;;;;;;;;;;696612;28;892;-63
2021/10/23 01:56:47;;;;;;;4.83;0.90;;;;;;;;;;696700;28;819;-63
2021/10/23 01:57:08;;;;;;;5.75;0.88;;;;;;;;;;696716;28;866;-63
2021/10/23 01:57:29;;;;;;;6.13;1.00;;;;;;;;;;696727;28;807;-63
2021/10/23 01:57:49;;;;;;;4.82;0.80;;;;;;;;;;696562;28;828;-63
2021/10/23 01:58:09;;;;;;;5.93;1.00;;;;;;;;;;696262;28;1354;-63
2021/10/23 01:58:29;;;;;;;5.13;0.90;;;;;;;;;;696661;28;810;-64
2021/10/23 01:58:50;;;;;;;6.07;0.90;;;;;;;;;;696593;28;828;-63
2021/10/23 01:59:10;;;;;;;6.10;1.20;;;;;;;;;;696713;28;973;-64
2021/10/23 01:59:30;;;;;;;6.55;1.20;;;;;;;;;;696567;28;896;-65
2021/10/23 01:59:50;;;;;;;6.37;1.10;;;;;;;;;;696671;28;927;-63
2021/10/23 02:00:17;;;;;;;7.23;1.10;;;;;;;;;;696612;28;951;-63
2021/10/23 02:00:40;;;;;;;6.07;1.05;;;;;;;;;;696532;28;923;-63
2021/10/23 02:01:00;;;;;;;6.05;1.23;;;;;;;;;;696625;28;946;-63
2021/10/23 02:01:20;;;;;;;7.63;1.20;;;;;;;;;;696538;28;884;-64
2021/10/23 02:01:40;;;;;;;6.23;1.00;;;;;;;;;;696718;28;981;-63
2021/10/23 02:02:02;;;;;;;5.43;1.00;;;;;;;;;;696382;28;908;-63
2021/10/23 02:02:22;;;;;;;5.18;1.02;;;;;;;;;;696274;28;918;-63
2021/10/23 02:02:43;;;;;;;5.55;1.05;;;;;;;;;;696168;28;900;-63
2021/10/23 02:03:03;;;;;;;5.23;1.10;;;;;;;;;;696305;28;814;-64
2021/10/23 02:03:23;;;;;;;4.97;1.13;;;;;;;;;;696426;28;1269;-63
2021/10/23 02:03:43;;;;;;;4.93;0.90;;;;;;;;;;696501;28;923;-64
2021/10/23 02:04:03;;;;;;;6.63;1.10;;;;;;;;;;696558;28;922;-64
2021/10/23 02:04:26;;;;;;;5.07;0.90;;;;;;;;;;696315;28;781;-64
2021/10/23 02:04:46;;;;;;;4.65;1.10;;;;;;;;;;696447;28;925;-63
2021/10/23 02:05:07;;;;;;;6.67;1.10;;;;;;;;;;696334;28;1961;-63
2021/10/23 02:05:27;;;;;;;6.72;0.90;;;;;;;;;;696280;28;939;-63
2021/10/23 02:05:47;;;;;;;4.60;0.80;;;;;;;;;;696441;28;856;-62
2021/10/23 02:06:09;;;;;;;4.97;1.03;;;;;;;;;;696457;28;832;-62
2021/10/23 02:06:29;;;;;;;6.55;1.15;;;;;;;;;;696537;28;915;-63
2021/10/23 02:06:49;;;;;;;7.73;1.07;;;;;;;;;;696665;28;781;-62
2021/10/23 02:07:09;;;;;;;5.97;1.00;;;;;;;;;;696754;28;967;-63
2021/10/23 02:07:30;;;;;;;5.67;1.10;;;;;;;;;;696612;28;828;-62
2021/10/23 02:07:50;;;;;;;5.83;1.10;;;;;;;;;;696634;28;804;-62
2021/10/23 02:08:10;;;;;;;6.40;1.20;;;;;;;;;;696638;28;916;-63
2021/10/23 02:08:30;;;;;;;4.57;0.93;;;;;;;;;;696400;28;927;-63
2021/10/23 02:08:53;;;;;;;5.00;0.85;;;;;;;;;;696703;28;959;-63
2021/10/23 02:09:13;;;;;;;5.22;0.80;;;;;;;;;;696717;28;978;-63
2021/10/23 02:09:33;;;;;;;5.67;0.90;;;;;;;;;;696493;28;923;-63